createdAt,value
2019-06-26T00:00:06.601Z,26.82
2019-06-26T00:00:45.292Z,23.40
2019-06-26T00:01:24.628Z,22.82
2019-06-26T00:02:03.749Z,23.62
2019-06-26T00:02:42.418Z,23.03
2019-06-26T00:03:21.938Z,22.35
2019-06-26T00:04:01.411Z,21.30
2019-06-26T00:04:40.588Z,24.07
2019-06-26T00:05:20.020Z,23.05
2019-06-26T00:05:59.421Z,24.90
2019-06-26T00:06:38.387Z,24.33
2019-06-26T00:07:17.969Z,25.17
2019-06-26T00:07:57.291Z,26.57
2019-06-26T00:08:36.311Z,25.10
2019-06-26T00:09:15.720Z,19.35
2019-06-26T00:09:55.229Z,22.75
2019-06-26T00:10:33.811Z,21.00
2019-06-26T00:11:12.961Z,23.77
2019-06-26T00:11:52.385Z,21.15
2019-06-26T00:12:31.349Z,20.92
2019-06-26T00:13:25.129Z,22.65
2019-06-26T00:13:51.201Z,20.88
2019-06-26T00:14:32.689Z,19.98
2019-06-26T00:15:12.169Z,22.93
2019-06-26T00:15:53.835Z,22.45
2019-06-26T00:16:32.473Z,22.80
2019-06-26T00:17:11.813Z,22.10
2019-06-26T00:17:50.929Z,21.33
2019-06-26T00:18:29.529Z,23.67
2019-06-26T00:19:08.655Z,21.20
2019-06-26T00:19:48.001Z,22.00
2019-06-26T00:20:26.470Z,21.15
2019-06-26T00:21:05.869Z,20.23
2019-06-26T00:21:45.623Z,29.07
2019-06-26T00:22:24.363Z,21.57
2019-06-26T00:23:03.454Z,27.40
2019-06-26T00:23:45.201Z,23.80
2019-06-26T00:24:23.858Z,23.32
2019-06-26T00:25:03.152Z,20.73
2019-06-26T00:25:44.494Z,23.92
2019-06-26T00:26:23.158Z,19.65
2019-06-26T00:27:02.531Z,21.03
2019-06-26T00:27:41.686Z,21.23
2019-06-26T00:28:20.343Z,20.65
2019-06-26T00:28:59.669Z,19.40
2019-06-26T00:29:40.409Z,22.62
2019-06-26T00:30:21.777Z,21.82
2019-06-26T00:31:02.186Z,22.40
2019-06-26T00:31:42.438Z,24.18
2019-06-26T00:32:22.181Z,23.55
2019-06-26T00:33:08.492Z,22.22
2019-06-26T00:34:49.231Z,28.95
2019-06-26T00:35:29.345Z,22.07
2019-06-26T00:36:11.318Z,27.00
2019-06-26T00:36:58.895Z,22.27
2019-06-26T00:37:43.134Z,24.95
2019-06-26T00:39:22.780Z,22.10
2019-06-26T00:41:01.194Z,25.35
2019-06-26T00:41:42.803Z,24.65
2019-06-26T00:42:29.660Z,22.32
2019-06-26T00:43:04.548Z,24.15
2019-06-26T00:43:43.946Z,21.42
2019-06-26T00:44:25.185Z,22.45
2019-06-26T00:45:06.530Z,25.43
2019-06-26T00:45:53.438Z,20.50
2019-06-26T00:46:33.302Z,21.75
2019-06-26T00:47:14.968Z,21.73
2019-06-26T00:47:54.322Z,24.30
2019-06-26T00:48:34.209Z,21.95
2019-06-26T00:49:16.390Z,22.80
2019-06-26T00:49:58.254Z,20.27
2019-06-26T00:50:37.342Z,21.70
2019-06-26T00:51:16.479Z,20.88
2019-06-26T00:51:56.153Z,21.95
2019-06-26T00:52:41.329Z,32.70
2019-06-26T00:53:24.202Z,20.40
2019-06-26T00:54:05.114Z,27.87
2019-06-26T00:54:53.418Z,25.77
2019-06-26T00:55:33.452Z,21.68
2019-06-26T00:56:20.844Z,24.37
2019-06-26T00:57:00.373Z,23.35
2019-06-26T00:57:42.143Z,22.73
2019-06-26T00:58:21.693Z,22.48
2019-06-26T00:59:06.210Z,21.25
2019-06-26T00:59:47.918Z,25.32
2019-06-26T01:01:45.354Z,24.67
2019-06-26T01:03:26.936Z,23.62
2019-06-26T01:04:14.310Z,26.00
2019-06-26T01:04:56.192Z,22.98
2019-06-26T01:05:44.872Z,22.35
2019-06-26T01:06:49.708Z,25.23
2019-06-26T01:07:34.091Z,22.30
2019-06-26T01:08:15.510Z,21.62
2019-06-26T01:08:56.022Z,24.20
2019-06-26T01:09:49.109Z,24.77
2019-06-26T01:10:38.865Z,23.05
2019-06-26T01:11:30.373Z,22.35
2019-06-26T01:12:11.110Z,24.20
2019-06-26T01:12:51.411Z,22.65
2019-06-26T01:13:34.802Z,22.10
2019-06-26T01:14:20.052Z,23.00
2019-06-26T01:15:04.541Z,22.70
2019-06-26T01:15:56.066Z,22.05
2019-06-26T01:16:43.621Z,22.40
2019-06-26T01:17:21.042Z,25.43
2019-06-26T01:18:01.502Z,21.93
2019-06-26T01:18:44.862Z,25.83
2019-06-26T01:19:27.680Z,20.62
2019-06-26T01:20:41.701Z,21.37
2019-06-26T01:21:01.569Z,25.57
2019-06-26T01:22:41.709Z,25.30
2019-06-26T01:23:31.394Z,21.73
2019-06-26T01:24:20.335Z,26.85
2019-06-26T01:24:58.731Z,24.85
2019-06-26T01:25:39.594Z,23.10
2019-06-26T01:26:27.205Z,26.87
2019-06-26T01:27:21.179Z,26.15
2019-06-26T01:28:12.576Z,23.55
2019-06-26T01:28:54.167Z,26.37
2019-06-26T01:29:33.301Z,26.37
2019-06-26T01:30:15.182Z,25.27
2019-06-26T01:30:58.158Z,23.55
2019-06-26T01:31:44.453Z,27.48
2019-06-26T01:32:25.830Z,22.13
2019-06-26T01:34:06.290Z,33.30
2019-06-26T01:35:07.201Z,27.57
2019-06-26T01:35:51.129Z,31.30
2019-06-26T01:36:45.415Z,28.95
2019-06-26T01:37:20.080Z,30.85
2019-06-26T01:39:12.669Z,31.60
2019-06-26T01:40:03.877Z,41.02
2019-06-26T01:40:50.858Z,31.50
2019-06-26T01:42:28.021Z,32.23
2019-06-26T01:43:07.947Z,34.05
2019-06-26T01:43:51.087Z,37.30
2019-06-26T01:44:31.559Z,33.58
2019-06-26T01:45:10.925Z,30.37
2019-06-26T01:46:52.992Z,32.58
2019-06-26T01:47:35.894Z,27.48
2019-06-26T01:48:18.556Z,38.08
2019-06-26T01:48:57.233Z,33.15
2019-06-26T01:49:47.550Z,33.17
2019-06-26T01:51:28.415Z,29.52
2019-06-26T01:52:15.684Z,34.98
2019-06-26T01:52:56.518Z,28.07
2019-06-26T01:53:39.993Z,32.93
2019-06-26T01:54:22.286Z,30.60
2019-06-26T01:55:02.255Z,32.03
2019-06-26T01:55:41.767Z,33.18
2019-06-26T01:56:24.553Z,30.10
2019-06-26T01:57:10.326Z,31.42
2019-06-26T01:57:52.619Z,33.92
2019-06-26T01:59:40.769Z,31.25
2019-06-26T02:00:19.237Z,30.08
2019-06-26T02:01:00.904Z,30.60
2019-06-26T02:01:44.251Z,32.00
2019-06-26T02:02:25.701Z,31.50
2019-06-26T02:03:20.715Z,31.73
2019-06-26T02:03:56.841Z,34.58
2019-06-26T02:05:38.233Z,36.98
2019-06-26T02:06:19.608Z,32.50
2019-06-26T02:06:59.989Z,30.12
2019-06-26T02:07:39.143Z,32.07
2019-06-26T02:08:18.236Z,33.73
2019-06-26T02:08:58.437Z,32.70
2019-06-26T02:09:46.457Z,35.08
2019-06-26T02:10:28.326Z,32.73
2019-06-26T02:11:11.717Z,31.52
2019-06-26T02:12:01.526Z,34.33
2019-06-26T02:12:45.721Z,31.03
2019-06-26T02:13:34.518Z,31.82
2019-06-26T02:14:32.259Z,36.48
2019-06-26T02:15:11.997Z,30.70
2019-06-26T02:15:52.591Z,31.52
2019-06-26T02:18:50.576Z,30.05
2019-06-26T02:19:33.479Z,47.58
2019-06-26T02:20:15.165Z,31.60
2019-06-26T02:21:00.117Z,30.43
2019-06-26T02:21:39.186Z,28.85
2019-06-26T02:22:20.916Z,31.77
2019-06-26T02:23:17.585Z,35.20
2019-06-26T02:24:00.559Z,33.85
2019-06-26T02:25:39.217Z,28.75
2019-06-26T02:26:19.551Z,29.18
2019-06-26T02:26:59.513Z,30.37
2019-06-26T02:27:39.304Z,31.93
2019-06-26T02:28:22.120Z,30.83
2019-06-26T02:29:05.443Z,29.67
2019-06-26T02:29:48.504Z,35.17
2019-06-26T02:30:28.935Z,35.35
2019-06-26T02:31:13.030Z,30.17
2019-06-26T02:32:01.570Z,27.55
2019-06-26T02:32:40.969Z,28.70
2019-06-26T02:33:26.964Z,29.13
2019-06-26T02:34:07.095Z,31.60
2019-06-26T02:34:48.314Z,28.38
2019-06-26T02:35:27.474Z,29.23
2019-06-26T02:36:09.114Z,27.95
2019-06-26T02:36:48.890Z,29.82
2019-06-26T02:37:34.754Z,28.98
2019-06-26T02:38:14.299Z,29.72
2019-06-26T02:38:57.319Z,28.38
2019-06-26T02:39:41.245Z,29.27
2019-06-26T02:40:32.761Z,37.05
2019-06-26T02:41:22.320Z,31.37
2019-06-26T02:42:03.112Z,32.30
2019-06-26T02:42:45.444Z,30.77
2019-06-26T02:43:26.515Z,29.23
2019-06-26T02:44:12.329Z,28.23
2019-06-26T02:44:54.534Z,29.65
2019-06-26T02:45:36.012Z,30.50
2019-06-26T02:46:19.847Z,31.60
2019-06-26T02:47:17.720Z,29.85
2019-06-26T02:47:39.682Z,29.63
2019-06-26T02:48:22.885Z,32.80
2019-06-26T02:49:18.551Z,31.75
2019-06-26T02:50:00.181Z,29.80
2019-06-26T02:50:45.350Z,30.97
2019-06-26T02:51:24.740Z,29.55
2019-06-26T02:52:03.573Z,33.95
2019-06-26T02:52:42.933Z,30.93
2019-06-26T02:53:29.883Z,30.82
2019-06-26T02:54:14.257Z,28.20
2019-06-26T02:54:56.540Z,28.37
2019-06-26T02:55:36.761Z,27.55
2019-06-26T02:56:16.844Z,31.45
2019-06-26T02:56:56.960Z,29.60
2019-06-26T02:57:36.926Z,25.85
2019-06-26T02:58:17.858Z,23.42
2019-06-26T02:58:57.611Z,24.40
2019-06-26T02:59:36.559Z,19.00
2019-06-26T03:00:21.854Z,23.20
2019-06-26T03:01:00.808Z,23.67
2019-06-26T03:01:39.826Z,22.57
2019-06-26T03:02:18.323Z,18.73
2019-06-26T03:02:59.290Z,20.45
2019-06-26T03:03:41.057Z,25.40
2019-06-26T03:04:20.244Z,29.03
2019-06-26T03:05:02.293Z,19.47
2019-06-26T03:05:43.199Z,21.75
2019-06-26T03:06:23.228Z,22.45
2019-06-26T03:07:02.993Z,19.87
2019-06-26T03:07:43.267Z,21.93
2019-06-26T03:08:22.798Z,22.25
2019-06-26T03:09:03.132Z,21.63
2019-06-26T03:09:43.151Z,20.03
2019-06-26T03:10:23.133Z,22.97
2019-06-26T03:11:04.049Z,22.30
2019-06-26T03:11:43.344Z,20.08
2019-06-26T03:12:22.800Z,18.95
2019-06-26T03:13:02.610Z,17.40
2019-06-26T03:13:42.454Z,17.53
2019-06-26T03:14:22.185Z,17.85
2019-06-26T03:15:08.871Z,19.55
2019-06-26T03:15:44.077Z,20.82
2019-06-26T03:16:23.638Z,20.08
2019-06-26T03:17:05.518Z,18.87
2019-06-26T03:17:55.275Z,21.73
2019-06-26T03:18:27.961Z,21.40
2019-06-26T03:19:08.098Z,16.43
2019-06-26T03:19:48.702Z,18.60
2019-06-26T03:20:30.462Z,16.20
2019-06-26T03:21:10.356Z,16.20
2019-06-26T03:21:50.554Z,20.53
2019-06-26T03:22:30.378Z,14.47
2019-06-26T03:23:09.743Z,15.30
2019-06-26T03:23:49.546Z,16.95
2019-06-26T03:24:28.620Z,17.00
2019-06-26T03:25:07.786Z,18.48
2019-06-26T03:25:47.824Z,16.27
2019-06-26T03:26:26.710Z,18.98
2019-06-26T03:27:08.894Z,15.20
2019-06-26T03:27:47.746Z,19.98
2019-06-26T03:28:28.227Z,16.23
2019-06-26T03:29:09.508Z,13.78
2019-06-26T03:29:49.527Z,17.30
2019-06-26T03:30:28.554Z,14.90
2019-06-26T03:31:08.462Z,16.10
2019-06-26T03:31:49.283Z,19.80
2019-06-26T03:32:28.671Z,17.37
2019-06-26T03:33:08.693Z,15.67
2019-06-26T03:33:48.457Z,20.37
2019-06-26T03:34:28.297Z,13.25
2019-06-26T03:35:08.314Z,20.02
2019-06-26T03:35:49.175Z,13.53
2019-06-26T03:36:28.251Z,17.10
2019-06-26T03:37:08.539Z,15.98
2019-06-26T03:37:49.270Z,17.35
2019-06-26T03:38:29.493Z,18.98
2019-06-26T03:39:11.024Z,18.55
2019-06-26T03:39:51.028Z,19.77
2019-06-26T03:40:30.014Z,16.15
2019-06-26T03:41:10.460Z,20.75
2019-06-26T03:41:50.985Z,18.23
2019-06-26T03:42:30.860Z,16.55
2019-06-26T03:43:10.994Z,22.27
2019-06-26T03:43:50.515Z,18.07
2019-06-26T03:44:29.569Z,13.98
2019-06-26T03:45:24.183Z,19.67
2019-06-26T03:45:49.617Z,16.35
2019-06-26T03:46:28.862Z,17.80
2019-06-26T03:47:08.265Z,18.80
2019-06-26T03:47:47.815Z,17.83
2019-06-26T03:48:26.637Z,21.80
2019-06-26T03:49:06.132Z,19.05
2019-06-26T03:49:46.278Z,16.12
2019-06-26T03:50:26.042Z,16.40
2019-06-26T03:51:06.034Z,18.60
2019-06-26T03:51:45.602Z,14.58
2019-06-26T03:52:25.175Z,14.70
2019-06-26T03:53:04.973Z,17.50
2019-06-26T03:53:45.167Z,21.73
2019-06-26T03:54:24.117Z,20.90
2019-06-26T03:55:04.080Z,16.23
2019-06-26T03:55:44.151Z,17.97
2019-06-26T03:56:23.718Z,16.60
2019-06-26T03:57:03.429Z,23.70
2019-06-26T03:57:43.100Z,16.10
2019-06-26T03:58:22.479Z,17.77
2019-06-26T03:59:02.799Z,15.17
2019-06-26T03:59:42.219Z,15.60
2019-06-26T04:00:26.182Z,17.90
2019-06-26T04:01:06.239Z,18.87
2019-06-26T04:01:46.139Z,15.10
2019-06-26T04:02:25.361Z,20.70
2019-06-26T04:03:04.824Z,16.48
2019-06-26T04:03:45.303Z,19.57
2019-06-26T04:04:24.313Z,16.07
2019-06-26T04:05:04.293Z,15.37
2019-06-26T04:05:44.749Z,16.53
2019-06-26T04:06:24.608Z,18.10
2019-06-26T04:07:05.493Z,12.77
2019-06-26T04:07:44.908Z,17.07
2019-06-26T04:08:24.987Z,21.80
2019-06-26T04:09:06.387Z,16.03
2019-06-26T04:09:46.205Z,18.23
2019-06-26T04:10:25.813Z,17.50
2019-06-26T04:11:06.014Z,21.37
2019-06-26T04:11:46.027Z,16.90
2019-06-26T04:12:24.971Z,19.92
2019-06-26T04:13:05.200Z,21.05
2019-06-26T04:13:45.316Z,20.00
2019-06-26T04:14:24.822Z,18.57
2019-06-26T04:15:06.214Z,21.05
2019-06-26T04:15:46.804Z,22.30
2019-06-26T04:16:26.129Z,21.17
2019-06-26T04:17:06.684Z,15.97
2019-06-26T04:17:50.952Z,19.87
2019-06-26T04:18:31.022Z,16.43
2019-06-26T04:19:11.162Z,20.67
2019-06-26T04:19:50.719Z,14.23
2019-06-26T04:20:29.881Z,22.37
2019-06-26T04:21:10.239Z,16.73
2019-06-26T04:21:50.826Z,13.63
2019-06-26T04:22:30.063Z,15.80
2019-06-26T04:23:10.689Z,16.73
2019-06-26T04:23:50.294Z,15.33
2019-06-26T04:24:28.841Z,13.77
2019-06-26T04:25:08.707Z,17.23
2019-06-26T04:25:47.908Z,15.37
2019-06-26T04:26:26.498Z,20.43
2019-06-26T04:27:05.710Z,18.00
2019-06-26T04:27:45.000Z,16.10
2019-06-26T04:28:23.754Z,21.60
2019-06-26T04:29:03.350Z,18.00
2019-06-26T04:29:44.314Z,17.13
2019-06-26T04:30:23.742Z,18.63
2019-06-26T04:31:03.172Z,17.60
2019-06-26T04:31:43.226Z,18.47
2019-06-26T04:32:22.753Z,15.50
2019-06-26T04:33:02.759Z,14.47
2019-06-26T04:33:41.866Z,15.30
2019-06-26T04:34:20.841Z,14.30
2019-06-26T04:35:00.829Z,17.47
2019-06-26T04:35:41.431Z,16.83
2019-06-26T04:36:21.097Z,18.93
2019-06-26T04:37:01.060Z,19.37
2019-06-26T04:37:41.195Z,15.40
2019-06-26T04:38:19.928Z,18.93
2019-06-26T04:38:59.664Z,16.60
2019-06-26T04:39:40.391Z,14.63
2019-06-26T04:40:20.555Z,18.50
2019-06-26T04:41:00.917Z,20.70
2019-06-26T04:41:42.393Z,15.67
2019-06-26T04:42:21.419Z,17.17
2019-06-26T04:43:01.462Z,14.87
2019-06-26T04:43:41.749Z,18.13
2019-06-26T04:44:21.416Z,13.73
2019-06-26T04:45:00.917Z,20.05
2019-06-26T04:45:54.128Z,17.43
2019-06-26T04:46:22.385Z,19.20
2019-06-26T04:47:02.130Z,15.70
2019-06-26T04:47:42.617Z,22.53
2019-06-26T04:48:21.561Z,17.73
2019-06-26T04:49:00.734Z,20.10
2019-06-26T04:49:40.487Z,15.83
2019-06-26T04:50:19.201Z,15.37
2019-06-26T04:50:58.832Z,14.97
2019-06-26T04:51:38.232Z,21.40
2019-06-26T04:52:17.198Z,17.13
2019-06-26T04:52:57.212Z,17.40
2019-06-26T04:53:37.937Z,17.70
2019-06-26T04:54:17.737Z,16.07
2019-06-26T04:54:57.097Z,16.23
2019-06-26T04:55:37.521Z,14.77
2019-06-26T04:56:17.456Z,16.80
2019-06-26T04:56:57.509Z,19.87
2019-06-26T04:57:38.166Z,14.53
2019-06-26T04:58:17.964Z,18.33
2019-06-26T04:58:58.483Z,14.57
2019-06-26T04:59:38.296Z,16.20
2019-06-26T05:00:17.029Z,16.60
2019-06-26T05:00:56.619Z,14.43
2019-06-26T05:01:36.093Z,17.90
2019-06-26T05:02:15.544Z,17.07
2019-06-26T05:02:55.282Z,16.07
2019-06-26T05:03:34.829Z,18.53
2019-06-26T05:04:14.189Z,14.43
2019-06-26T05:04:54.638Z,18.00
2019-06-26T05:05:39.568Z,13.30
2019-06-26T05:06:15.855Z,21.70
2019-06-26T05:06:57.282Z,18.13
2019-06-26T05:07:37.222Z,18.63
2019-06-26T05:08:17.905Z,14.90
2019-06-26T05:08:57.503Z,16.90
2019-06-26T05:09:37.672Z,17.27
2019-06-26T05:10:16.855Z,18.70
2019-06-26T05:10:56.893Z,13.90
2019-06-26T05:11:36.316Z,16.03
2019-06-26T05:12:15.937Z,14.90
2019-06-26T05:12:56.152Z,17.23
2019-06-26T05:13:35.964Z,15.30
2019-06-26T05:14:17.094Z,16.50
2019-06-26T05:14:57.166Z,13.50
2019-06-26T05:15:37.356Z,16.23
2019-06-26T05:16:20.045Z,16.07
2019-06-26T05:16:57.296Z,15.70
2019-06-26T05:17:37.089Z,18.37
2019-06-26T05:18:16.270Z,20.37
2019-06-26T05:18:56.141Z,18.93
2019-06-26T05:19:35.453Z,16.87
2019-06-26T05:20:15.470Z,15.37
2019-06-26T05:20:55.212Z,19.63
2019-06-26T05:21:34.877Z,15.90
2019-06-26T05:22:13.807Z,18.40
2019-06-26T05:22:53.226Z,16.20
2019-06-26T05:23:33.105Z,15.93
2019-06-26T05:24:12.527Z,17.37
2019-06-26T05:24:52.305Z,21.33
2019-06-26T05:25:33.102Z,19.57
2019-06-26T05:26:12.001Z,16.30
2019-06-26T05:26:51.774Z,16.10
2019-06-26T05:27:31.189Z,17.12
2019-06-26T05:28:11.088Z,24.00
2019-06-26T05:28:50.697Z,16.27
2019-06-26T05:29:30.424Z,16.77
2019-06-26T05:30:09.952Z,18.63
2019-06-26T05:30:49.466Z,15.17
2019-06-26T05:31:28.887Z,18.10
2019-06-26T05:32:08.130Z,17.85
2019-06-26T05:32:47.802Z,19.67
2019-06-26T05:33:28.189Z,16.87
2019-06-26T05:34:10.718Z,21.63
2019-06-26T05:34:48.293Z,19.73
2019-06-26T05:35:28.250Z,24.85
2019-06-26T05:36:08.012Z,15.50
2019-06-26T05:36:47.801Z,15.47
2019-06-26T05:37:27.426Z,18.50
2019-06-26T05:38:06.333Z,26.00
2019-06-26T05:38:45.955Z,20.10
2019-06-26T05:39:25.365Z,20.37
2019-06-26T05:40:04.638Z,20.73
2019-06-26T05:40:44.316Z,18.83
2019-06-26T05:41:23.996Z,19.73
2019-06-26T05:42:05.743Z,25.33
2019-06-26T05:42:43.118Z,19.90
2019-06-26T05:43:23.029Z,19.43
2019-06-26T05:44:02.467Z,18.20
2019-06-26T05:44:42.198Z,15.83
2019-06-26T05:45:21.964Z,13.33
2019-06-26T05:46:01.146Z,17.40
2019-06-26T05:46:40.630Z,17.10
2019-06-26T05:47:22.165Z,14.57
2019-06-26T05:48:01.266Z,16.83
2019-06-26T05:48:40.610Z,15.93
2019-06-26T05:49:19.794Z,16.03
2019-06-26T05:49:58.668Z,21.57
2019-06-26T05:50:38.610Z,16.37
2019-06-26T05:51:18.907Z,15.80
2019-06-26T05:52:01.325Z,19.57
2019-06-26T05:52:42.557Z,17.97
2019-06-26T05:53:20.751Z,19.80
2019-06-26T05:54:00.088Z,15.67
2019-06-26T05:54:39.805Z,17.73
2019-06-26T05:55:20.362Z,16.50
2019-06-26T05:55:59.367Z,16.80
2019-06-26T05:56:39.446Z,15.83
2019-06-26T05:57:19.140Z,17.60
2019-06-26T05:57:58.014Z,16.37
2019-06-26T05:58:37.834Z,14.47
2019-06-26T05:59:18.052Z,15.07
2019-06-26T05:59:57.573Z,16.93
2019-06-26T06:00:37.569Z,16.43
2019-06-26T06:01:16.960Z,16.50
2019-06-26T06:01:56.078Z,17.33
2019-06-26T06:02:35.821Z,18.50
2019-06-26T06:03:15.721Z,20.30
2019-06-26T06:03:55.729Z,16.50
2019-06-26T06:04:35.093Z,14.40
2019-06-26T06:05:14.825Z,17.03
2019-06-26T06:05:54.186Z,16.93
2019-06-26T06:06:41.492Z,17.87
2019-06-26T06:07:15.712Z,17.37
2019-06-26T06:07:54.789Z,14.90
2019-06-26T06:08:34.560Z,17.17
2019-06-26T06:09:14.452Z,19.67
2019-06-26T06:09:54.836Z,16.53
2019-06-26T06:10:35.295Z,20.27
2019-06-26T06:11:16.022Z,16.00
2019-06-26T06:11:56.031Z,21.70
2019-06-26T06:12:37.476Z,14.70
2019-06-26T06:13:17.896Z,14.43
2019-06-26T06:13:58.448Z,15.63
2019-06-26T06:14:38.817Z,15.00
2019-06-26T06:15:19.055Z,21.50
2019-06-26T06:16:01.405Z,17.40
2019-06-26T06:16:47.207Z,13.70
2019-06-26T06:17:23.912Z,16.50
2019-06-26T06:18:03.620Z,24.20
2019-06-26T06:18:44.531Z,17.77
2019-06-26T06:19:24.829Z,16.60
2019-06-26T06:20:05.349Z,15.50
2019-06-26T06:20:45.434Z,21.03
2019-06-26T06:21:25.469Z,16.30
2019-06-26T06:22:04.617Z,17.13
2019-06-26T06:22:44.181Z,16.67
2019-06-26T06:23:24.757Z,18.00
2019-06-26T06:24:05.498Z,17.50
2019-06-26T06:24:46.965Z,16.67
2019-06-26T06:25:27.780Z,12.43
2019-06-26T06:26:07.442Z,15.93
2019-06-26T06:26:47.427Z,20.57
2019-06-26T06:27:27.322Z,18.97
2019-06-26T06:28:07.007Z,14.27
2019-06-26T06:28:48.071Z,17.10
2019-06-26T06:29:30.753Z,14.60
2019-06-26T06:30:09.913Z,15.03
2019-06-26T06:30:50.716Z,17.53
2019-06-26T06:31:31.254Z,18.23
2019-06-26T06:32:11.163Z,20.43
2019-06-26T06:32:51.338Z,19.87
2019-06-26T06:33:31.302Z,18.63
2019-06-26T06:34:11.334Z,15.40
2019-06-26T06:34:52.864Z,17.83
2019-06-26T06:35:33.639Z,17.80
2019-06-26T06:36:14.297Z,17.50
2019-06-26T06:36:56.755Z,13.77
2019-06-26T06:37:36.985Z,16.07
2019-06-26T06:38:16.984Z,16.65
2019-06-26T06:38:56.854Z,15.07
2019-06-26T06:39:36.930Z,14.50
2019-06-26T06:40:16.382Z,18.87
2019-06-26T06:41:14.033Z,17.77
2019-06-26T06:41:53.520Z,15.03
2019-06-26T06:42:32.090Z,16.97
2019-06-26T06:43:11.764Z,14.33
2019-06-26T06:43:50.797Z,15.13
2019-06-26T06:44:29.445Z,25.13
2019-06-26T06:45:08.965Z,13.73
2019-06-26T06:45:48.678Z,17.37
2019-06-26T06:46:27.950Z,26.07
2019-06-26T06:47:09.073Z,20.70
2019-06-26T06:47:48.372Z,14.17
2019-06-26T06:48:27.261Z,19.37
2019-06-26T06:49:07.407Z,20.07
2019-06-26T06:49:50.618Z,22.23
2019-06-26T06:50:29.966Z,24.37
2019-06-26T06:51:09.839Z,18.13
2019-06-26T06:51:49.501Z,17.43
2019-06-26T06:52:28.309Z,17.33
2019-06-26T06:53:07.610Z,18.07
2019-06-26T06:53:47.626Z,23.13
2019-06-26T06:54:27.178Z,15.20
2019-06-26T06:55:06.661Z,20.43
2019-06-26T06:55:46.783Z,14.37
2019-06-26T06:56:26.202Z,19.67
2019-06-26T06:57:06.812Z,22.17
2019-06-26T06:57:46.554Z,17.87
2019-06-26T06:58:25.660Z,17.07
2019-06-26T06:59:06.085Z,16.50
2019-06-26T06:59:46.229Z,16.70
2019-06-26T07:00:24.833Z,15.30
2019-06-26T07:01:04.302Z,21.80
2019-06-26T07:01:44.444Z,19.40
2019-06-26T07:02:24.077Z,20.90
2019-06-26T07:03:03.919Z,19.17
2019-06-26T07:03:43.685Z,19.93
2019-06-26T07:04:23.470Z,24.83
2019-06-26T07:05:03.729Z,19.77
2019-06-26T07:05:44.183Z,27.77
2019-06-26T07:06:23.841Z,29.30
2019-06-26T07:07:03.911Z,23.97
2019-06-26T07:07:43.925Z,22.43
2019-06-26T07:08:23.635Z,26.33
2019-06-26T07:09:04.913Z,18.70
2019-06-26T07:09:45.655Z,21.43
2019-06-26T07:10:43.199Z,21.27
2019-06-26T07:11:24.019Z,24.03
2019-06-26T07:12:03.794Z,18.77
2019-06-26T07:12:42.777Z,25.30
2019-06-26T07:13:22.673Z,19.37
2019-06-26T07:14:03.646Z,21.77
2019-06-26T07:14:43.514Z,19.60
2019-06-26T07:15:23.010Z,16.60
2019-06-26T07:16:21.101Z,18.07
2019-06-26T07:17:19.411Z,19.63
2019-06-26T07:17:47.914Z,22.10
2019-06-26T07:18:28.615Z,19.50
2019-06-26T07:19:08.101Z,17.07
2019-06-26T07:19:48.403Z,20.00
2019-06-26T07:20:29.449Z,16.93
2019-06-26T07:21:12.565Z,20.07
2019-06-26T07:21:52.910Z,18.60
2019-06-26T07:22:33.177Z,17.73
2019-06-26T07:23:12.542Z,18.40
2019-06-26T07:23:52.425Z,20.50
2019-06-26T07:24:33.012Z,21.57
2019-06-26T07:25:13.201Z,17.00
2019-06-26T07:25:53.732Z,20.77
2019-06-26T07:26:36.690Z,17.47
2019-06-26T07:27:17.745Z,15.83
2019-06-26T07:28:01.999Z,15.57
2019-06-26T07:28:41.854Z,23.40
2019-06-26T07:29:21.397Z,17.33
2019-06-26T07:30:01.436Z,20.30
2019-06-26T07:30:41.429Z,20.43
2019-06-26T07:31:20.637Z,19.07
2019-06-26T07:32:00.901Z,23.00
2019-06-26T07:32:41.143Z,16.47
2019-06-26T07:33:21.413Z,15.87
2019-06-26T07:34:01.829Z,16.93
2019-06-26T07:34:59.764Z,21.13
2019-06-26T07:35:42.226Z,17.10
2019-06-26T07:36:22.320Z,21.10
2019-06-26T07:37:02.129Z,17.33
2019-06-26T07:37:41.005Z,21.00
2019-06-26T07:38:20.446Z,19.87
2019-06-26T07:38:59.746Z,18.23
2019-06-26T07:39:38.816Z,23.63
2019-06-26T07:40:17.942Z,18.90
2019-06-26T07:40:57.465Z,15.60
2019-06-26T07:41:38.107Z,22.70
2019-06-26T07:42:18.565Z,19.53
2019-06-26T07:42:57.970Z,16.90
2019-06-26T07:43:37.404Z,15.80
2019-06-26T07:44:17.065Z,18.23
2019-06-26T07:44:57.022Z,21.03
2019-06-26T07:45:36.483Z,21.57
2019-06-26T07:46:16.411Z,26.05
2019-06-26T07:46:56.211Z,18.70
2019-06-26T07:47:43.008Z,17.37
2019-06-26T07:48:16.366Z,21.20
2019-06-26T07:48:57.613Z,24.40
2019-06-26T07:49:36.256Z,19.43
2019-06-26T07:50:16.986Z,16.23
2019-06-26T07:50:56.818Z,26.90
2019-06-26T07:51:35.493Z,16.23
2019-06-26T07:52:15.098Z,20.47
2019-06-26T07:52:54.853Z,17.03
2019-06-26T07:53:34.140Z,21.53
2019-06-26T07:54:13.645Z,19.90
2019-06-26T07:54:53.579Z,21.30
2019-06-26T07:55:32.558Z,23.53
2019-06-26T07:56:12.491Z,19.50
2019-06-26T07:56:52.545Z,24.93
2019-06-26T07:57:32.056Z,17.30
2019-06-26T07:58:11.414Z,18.17
2019-06-26T07:58:50.602Z,19.00
2019-06-26T07:59:29.383Z,17.10
2019-06-26T08:00:09.195Z,19.03
2019-06-26T08:00:48.615Z,19.40
2019-06-26T08:01:27.726Z,16.47
2019-06-26T08:02:08.370Z,20.17
2019-06-26T08:02:47.821Z,19.80
2019-06-26T08:03:26.642Z,16.63
2019-06-26T08:04:06.129Z,20.03
2019-06-26T08:04:45.966Z,20.10
2019-06-26T08:05:24.777Z,16.00
2019-06-26T08:06:04.305Z,23.20
2019-06-26T08:06:43.715Z,16.97
2019-06-26T08:07:22.875Z,17.50
2019-06-26T08:08:02.802Z,19.43
2019-06-26T08:08:42.436Z,19.90
2019-06-26T08:09:21.963Z,20.10
2019-06-26T08:10:01.646Z,19.50
2019-06-26T08:10:41.616Z,17.83
2019-06-26T08:11:21.271Z,17.50
2019-06-26T08:12:01.006Z,23.40
2019-06-26T08:12:40.425Z,17.33
2019-06-26T08:13:19.404Z,17.07
2019-06-26T08:13:59.173Z,21.00
2019-06-26T08:14:38.767Z,22.17
2019-06-26T08:15:18.145Z,17.83
2019-06-26T08:15:57.701Z,17.67
2019-06-26T08:16:36.880Z,19.23
2019-06-26T08:17:15.782Z,17.00
2019-06-26T08:18:01.028Z,19.87
2019-06-26T08:18:37.641Z,16.80
2019-06-26T08:19:16.718Z,19.93
2019-06-26T08:19:56.225Z,18.10
2019-06-26T08:20:51.620Z,17.40
2019-06-26T08:21:16.461Z,18.27
2019-06-26T08:21:57.065Z,24.80
2019-06-26T08:22:36.516Z,20.57
2019-06-26T08:23:16.502Z,17.50
2019-06-26T08:23:56.225Z,18.40
2019-06-26T08:24:36.074Z,19.17
2019-06-26T08:25:14.949Z,21.23
2019-06-26T08:25:54.497Z,20.50
2019-06-26T08:26:34.365Z,16.70
2019-06-26T08:27:14.261Z,17.20
2019-06-26T08:27:53.825Z,17.00
2019-06-26T08:28:33.638Z,18.87
2019-06-26T08:29:13.507Z,16.87
2019-06-26T08:29:53.772Z,17.67
2019-06-26T08:30:34.334Z,23.70
2019-06-26T08:31:13.290Z,18.47
2019-06-26T08:31:52.934Z,17.90
2019-06-26T08:32:32.390Z,18.53
2019-06-26T08:33:11.689Z,20.10
2019-06-26T08:33:52.138Z,15.20
2019-06-26T08:34:32.652Z,22.47
2019-06-26T08:35:11.933Z,14.70
2019-06-26T08:35:51.294Z,18.13
2019-06-26T08:36:30.816Z,16.40
2019-06-26T08:37:09.793Z,15.90
2019-06-26T08:37:50.109Z,16.77
2019-06-26T08:38:30.033Z,18.43
2019-06-26T08:39:09.926Z,18.80
2019-06-26T08:39:49.487Z,20.30
2019-06-26T08:40:29.546Z,19.70
2019-06-26T08:41:08.474Z,18.00
2019-06-26T08:41:48.003Z,18.80
2019-06-26T08:42:27.805Z,17.37
2019-06-26T08:43:07.006Z,18.27
2019-06-26T08:43:46.689Z,17.03
2019-06-26T08:44:26.477Z,16.33
2019-06-26T08:45:05.787Z,16.33
2019-06-26T08:45:45.624Z,23.70
2019-06-26T08:46:25.586Z,19.47
2019-06-26T08:47:06.293Z,16.83
2019-06-26T08:47:49.567Z,19.07
2019-06-26T08:48:39.795Z,16.97
2019-06-26T08:49:24.358Z,21.73
2019-06-26T08:49:51.729Z,16.70
2019-06-26T08:50:31.169Z,18.23
2019-06-26T08:51:09.898Z,17.63
2019-06-26T08:51:49.485Z,17.10
2019-06-26T08:52:29.566Z,20.53
2019-06-26T08:53:08.767Z,17.60
2019-06-26T08:53:48.280Z,19.10
2019-06-26T08:54:28.165Z,16.23
2019-06-26T08:55:06.831Z,19.43
2019-06-26T08:55:46.639Z,17.07
2019-06-26T08:56:26.855Z,17.73
2019-06-26T08:57:06.227Z,17.73
2019-06-26T08:57:47.499Z,23.53
2019-06-26T08:58:27.737Z,17.93
2019-06-26T08:59:06.757Z,16.33
2019-06-26T08:59:47.687Z,17.67
2019-06-26T09:00:27.836Z,16.23
2019-06-26T09:01:07.584Z,17.50
2019-06-26T09:01:47.821Z,16.73